Maersk Pearl — 9VBB6 — position and weather

sailwx.info

Track history (hours):
 
Tides and Currents Weather Stations Pressure Air Temp Water Temp Dewpoint Dewpoint Depression Visibility Wind Speed Wind Dir Waves Ship Positions

Maersk Pearl

Last reported at 2018-May-17 02:50 UTC. Time now 2018-Jun-21 21:56 UTC.
Position N 23°06' E 067°03'.
Warning: this ship's position is 35 days out of date.

Length 244 m; draft 9 m.

Type: Tanker. MMSI: 563681000.

Date/timePositionNaut miles runAvg speedWind from/ knotsBaromVisibWave heightAir tempDewpointWater temp
2018-May-17 02:50N 23°06' E 067°03'411.4
2018-May-17 02:30N 23°02' E 067°03'5 9.6
2018-May-17 02:00N 22°57' E 067°05'5 9.8
2018-May-17 01:30N 22°53' E 067°07'5 9.7
2018-May-17 01:00N 22°48' E 067°09'62 8.9
2018-May-16 18:01N 21°52' E 067°37'0 8.5
2018-May-16 17:58N 21°52' E 067°37'6 8.3
2018-May-16 17:12N 21°46' E 067°40'2 8.1
2018-May-16 16:59N 21°44' E 067°41'94 8.2
2018-May-16 05:34N 20°25' E 068°34'0 8.3
2018-May-16 05:30N 20°25' E 068°35'5 8.2
2018-May-16 04:52N 20°20' E 068°38'3 8.2
2018-May-16 04:30N 20°18' E 068°40'4 8.3
2018-May-16 04:00N 20°15' E 068°42'611.0
2018-May-16 03:28N 20°10' E 068°46'711.2
2018-May-16 02:49N 20°03' E 068°50'11 8.6
2018-May-16 01:29N 19°54' E 068°56'4 8.6
2018-May-16 00:59N 19°50' E 068°58'4 8.5
2018-May-16 00:30N 19°46' E 069°01'5 8.4
2018-May-15 23:57N 19°42' E 069°03'4 8.5
2018-May-15 23:28N 19°39' E 069°05'4 8.6
2018-May-15 23:00N 19°36' E 069°08'5 8.6
2018-May-15 22:25N 19°31' E 069°11'7 8.5
2018-May-15 21:34N 19°25' E 069°15'2 8.4
2018-May-15 21:17N 19°23' E 069°16'2 8.2
2018-May-15 21:00N 19°21' E 069°17'4 8.2
2018-May-15 20:29N 19°18' E 069°19'4 8.4
2018-May-15 20:00N 19°14' E 069°22'5 8.6
2018-May-15 19:27N 19°10' E 069°24'5 8.6
2018-May-15 18:52N 19°06' E 069°27'3 8.7
2018-May-15 18:28N 19°03' E 069°29'4 8.7
2018-May-15 18:00N 18°59' E 069°31'5 9.0
2018-May-15 17:30N 18°56' E 069°34'6 9.1
2018-May-15 16:53N 18°51' E 069°37'6 9.2
2018-May-15 16:16N 18°46' E 069°41'10 9.2
2018-May-15 15:12N 18°38' E 069°47'2 9.1
2018-May-15 14:58N 18°36' E 069°48'5 9.0
2018-May-15 14:27N 18°32' E 069°51'4 9.2
2018-May-15 13:58N 18°29' E 069°53'6 9.3
2018-May-15 13:22N 18°24' E 069°56'3 9.3
2018-May-15 13:00N 18°21' E 069°58'9 9.3
2018-May-15 12:01N 18°13' E 070°03'7 9.3
2018-May-15 11:18N 18°07' E 070°06'23 9.9
2018-May-15 08:59N 17°48' E 070°19'510.1
2018-May-15 08:29N 17°44' E 070°22'9910.1
2018-May-14 22:41N 16°20' E 071°17'2 9.2
2018-May-14 22:30N 16°19' E 071°17'5 9.3
2018-May-14 21:59N 16°14' E 071°20'  
Track history (hours):
 
Tides and Currents Weather Stations Pressure Air Temp Water Temp Dewpoint Dewpoint Depression Visibility Wind Speed Wind Dir Waves Ship Positions

Maersk Pearl

Last reported at 2018-May-17 02:50 UTC. Time now 2018-Jun-21 21:56 UTC.
Position N 23°06' E 067°03'.
Warning: this ship's position is 35 days out of date.

Length 244 m; draft 9 m.

Type: Tanker. MMSI: 563681000.

Date/timePositionNaut miles runAvg speedWind from/ knotsBaromVisibWave heightAir tempDewpointWater temp
2018-May-17 02:50N 23°06' E 067°03'411.4
2018-May-17 02:30N 23°02' E 067°03'5 9.6
2018-May-17 02:00N 22°57' E 067°05'5 9.8
2018-May-17 01:30N 22°53' E 067°07'5 9.7
2018-May-17 01:00N 22°48' E 067°09'62 8.9
2018-May-16 18:01N 21°52' E 067°37'0 8.5
2018-May-16 17:58N 21°52' E 067°37'6 8.3
2018-May-16 17:12N 21°46' E 067°40'2 8.1
2018-May-16 16:59N 21°44' E 067°41'94 8.2
2018-May-16 05:34N 20°25' E 068°34'0 8.3
2018-May-16 05:30N 20°25' E 068°35'5 8.2
2018-May-16 04:52N 20°20' E 068°38'3 8.2
2018-May-16 04:30N 20°18' E 068°40'4 8.3
2018-May-16 04:00N 20°15' E 068°42'611.0
2018-May-16 03:28N 20°10' E 068°46'711.2
2018-May-16 02:49N 20°03' E 068°50'11 8.6
2018-May-16 01:29N 19°54' E 068°56'4 8.6
2018-May-16 00:59N 19°50' E 068°58'4 8.5
2018-May-16 00:30N 19°46' E 069°01'5 8.4
2018-May-15 23:57N 19°42' E 069°03'4 8.5
2018-May-15 23:28N 19°39' E 069°05'4 8.6
2018-May-15 23:00N 19°36' E 069°08'5 8.6
2018-May-15 22:25N 19°31' E 069°11'7 8.5
2018-May-15 21:34N 19°25' E 069°15'2 8.4
2018-May-15 21:17N 19°23' E 069°16'2 8.2
2018-May-15 21:00N 19°21' E 069°17'4 8.2
2018-May-15 20:29N 19°18' E 069°19'4 8.4
2018-May-15 20:00N 19°14' E 069°22'5 8.6
2018-May-15 19:27N 19°10' E 069°24'5 8.6
2018-May-15 18:52N 19°06' E 069°27'3 8.7
2018-May-15 18:28N 19°03' E 069°29'4 8.7
2018-May-15 18:00N 18°59' E 069°31'5 9.0
2018-May-15 17:30N 18°56' E 069°34'6 9.1
2018-May-15 16:53N 18°51' E 069°37'6 9.2
2018-May-15 16:16N 18°46' E 069°41'10 9.2
2018-May-15 15:12N 18°38' E 069°47'2 9.1
2018-May-15 14:58N 18°36' E 069°48'5 9.0
2018-May-15 14:27N 18°32' E 069°51'4 9.2
2018-May-15 13:58N 18°29' E 069°53'6 9.3
2018-May-15 13:22N 18°24' E 069°56'3 9.3
2018-May-15 13:00N 18°21' E 069°58'9 9.3
2018-May-15 12:01N 18°13' E 070°03'7 9.3
2018-May-15 11:18N 18°07' E 070°06'23 9.9
2018-May-15 08:59N 17°48' E 070°19'510.1
2018-May-15 08:29N 17°44' E 070°22'9910.1
2018-May-14 22:41N 16°20' E 071°17'2 9.2
2018-May-14 22:30N 16°19' E 071°17'5 9.3
2018-May-14 21:59N 16°14' E 071°20'  

Dump ship's entire track history